sensor_id;sensor_type;location;lat;lon;timestamp;pressure;altitude;pressure_sealevel;temperature;humidity
50518;BME280;37075;44.084;2.962;2024-02-28T12:40:00;98036.97;;;12.56;45.57
50518;BME280;37075;44.084;2.962;2024-02-28T12:42:49;98038.75;;;12.85;45.66
50518;BME280;37075;44.084;2.962;2024-02-28T12:45:36;98044.34;;;13.01;45.05
50518;BME280;37075;44.084;2.962;2024-02-28T12:48:22;98033.72;;;13.00;44.16
50518;BME280;37075;44.084;2.962;2024-02-28T12:51:10;98040.13;;;13.04;44.34
50518;BME280;37075;44.084;2.962;2024-02-28T12:53:57;98058.34;;;12.87;43.03
50518;BME280;37075;44.084;2.962;2024-02-28T12:56:45;98026.19;;;12.84;44.06
50518;BME280;37075;44.084;2.962;2024-02-28T12:59:31;98032.25;;;12.90;43.78
50518;BME280;37075;44.084;2.962;2024-02-28T13:02:17;98029.63;;;12.93;43.86
50518;BME280;37075;44.084;2.962;2024-02-28T13:05:05;98033.97;;;13.07;43.99
50518;BME280;37075;44.084;2.962;2024-02-28T13:07:51;98037.97;;;13.09;43.39
50518;BME280;37075;44.084;2.962;2024-02-28T13:10:38;98028.03;;;13.17;43.77
50518;BME280;37075;44.084;2.962;2024-02-28T13:13:27;98027.38;;;13.20;42.32
50518;BME280;37075;44.084;2.962;2024-02-28T13:16:13;98021.44;;;13.18;42.89
50518;BME280;37075;44.084;2.962;2024-02-28T13:18:59;98019.50;;;13.18;43.10
50518;BME280;37075;44.084;2.962;2024-02-28T13:21:45;98010.94;;;13.32;43.44
50518;BME280;37075;44.084;2.962;2024-02-28T13:24:32;98009.66;;;13.42;43.83
50518;BME280;37075;44.084;2.962;2024-02-28T13:27:20;98030.81;;;13.29;41.90
50518;BME280;37075;44.084;2.962;2024-02-28T13:30:09;98031.25;;;13.19;42.02
50518;BME280;37075;44.084;2.962;2024-02-28T13:32:55;98025.09;;;13.22;41.87
50518;BME280;37075;44.084;2.962;2024-02-28T13:35:42;98010.78;;;13.16;41.92
50518;BME280;37075;44.084;2.962;2024-02-28T13:38:28;98017.06;;;13.17;42.35
50518;BME280;37075;44.084;2.962;2024-02-28T13:41:14;98021.31;;;13.26;42.80
50518;BME280;37075;44.084;2.962;2024-02-28T13:44:02;98018.22;;;13.40;42.95
50518;BME280;37075;44.084;2.962;2024-02-28T13:46:50;98019.47;;;13.43;42.31
50518;BME280;37075;44.084;2.962;2024-02-28T13:49:37;98016.84;;;13.46;43.42
50518;BME280;37075;44.084;2.962;2024-02-28T13:52:24;98010.47;;;13.54;42.87
50518;BME280;37075;44.084;2.962;2024-02-28T13:55:10;98023.56;;;13.61;43.05
50518;BME280;37075;44.084;2.962;2024-02-28T13:57:56;98023.00;;;13.55;42.64
50518;BME280;37075;44.084;2.962;2024-02-28T14:00:43;98027.47;;;13.48;42.36
50518;BME280;37075;44.084;2.962;2024-02-28T14:03:31;98022.56;;;13.41;43.21
50518;BME280;37075;44.084;2.962;2024-02-28T14:06:17;98014.09;;;13.46;43.08
50518;BME280;37075;44.084;2.962;2024-02-28T14:09:03;98014.69;;;13.40;43.06
50518;BME280;37075;44.084;2.962;2024-02-28T14:11:50;98015.72;;;13.23;43.14
50518;BME280;37075;44.084;2.962;2024-02-28T14:14:36;98018.81;;;13.21;44.08
50518;BME280;37075;44.084;2.962;2024-02-28T14:17:24;98018.69;;;13.42;44.17
50518;BME280;37075;44.084;2.962;2024-02-28T14:20:12;98019.13;;;13.44;43.70
50518;BME280;37075;44.084;2.962;2024-02-28T14:22:58;98018.44;;;13.47;43.78
50518;BME280;37075;44.084;2.962;2024-02-28T14:25:44;98016.16;;;13.49;43.57
50518;BME280;37075;44.084;2.962;2024-02-28T14:28:31;98027.34;;;13.44;43.12
50518;BME280;37075;44.084;2.962;2024-02-28T14:31:17;98023.84;;;13.32;43.78
50518;BME280;37075;44.084;2.962;2024-02-28T14:34:04;98016.63;;;13.27;43.71
50518;BME280;37075;44.084;2.962;2024-02-28T14:36:51;98013.56;;;13.29;43.79
50518;BME280;37075;44.084;2.962;2024-02-28T14:39:37;98025.09;;;13.34;44.02
50518;BME280;37075;44.084;2.962;2024-02-28T14:42:24;98028.16;;;13.45;44.16
50518;BME280;37075;44.084;2.962;2024-02-28T14:45:11;98025.47;;;13.73;44.28
50518;BME280;37075;44.084;2.962;2024-02-28T14:47:57;98022.06;;;14.04;43.70
50518;BME280;37075;44.084;2.962;2024-02-28T14:50:43;98015.66;;;14.28;43.21
50518;BME280;37075;44.084;2.962;2024-02-28T14:53:31;98018.53;;;14.59;42.66
50518;BME280;37075;44.084;2.962;2024-02-28T14:56:17;98016.59;;;14.91;41.23
50518;BME280;37075;44.084;2.962;2024-02-28T14:59:04;98012.34;;;15.09;41.82
50518;BME280;37075;44.084;2.962;2024-02-28T15:01:50;98017.59;;;15.34;40.60
50518;BME280;37075;44.084;2.962;2024-02-28T15:04:37;98003.13;;;15.53;40.82
50518;BME280;37075;44.084;2.962;2024-02-28T15:07:23;98017.66;;;15.53;40.31
50518;BME280;37075;44.084;2.962;2024-02-28T15:10:11;98019.63;;;15.53;39.72
50518;BME280;37075;44.084;2.962;2024-02-28T15:12:58;98021.41;;;15.80;40.22
50518;BME280;37075;44.084;2.962;2024-02-28T15:15:44;98022.25;;;16.00;39.75
50518;BME280;37075;44.084;2.962;2024-02-28T15:18:30;98014.28;;;16.14;38.84
50518;BME280;37075;44.084;2.962;2024-02-28T15:21:16;98007.81;;;16.26;39.40
50518;BME280;37075;44.084;2.962;2024-02-28T15:24:02;98018.66;;;16.38;38.63
50518;BME280;37075;44.084;2.962;2024-02-28T15:26:50;98026.22;;;16.41;38.82
50518;BME280;37075;44.084;2.962;2024-02-28T15:29:37;98017.41;;;16.55;38.76
50518;BME280;37075;44.084;2.962;2024-02-28T15:32:25;98015.75;;;16.70;38.12
50518;BME280;37075;44.084;2.962;2024-02-28T15:35:11;98018.50;;;16.50;36.85
50518;BME280;37075;44.084;2.962;2024-02-28T15:37:57;98022.94;;;16.35;37.92
50518;BME280;37075;44.084;2.962;2024-02-28T15:40:43;98015.28;;;16.45;38.53
50518;BME280;37075;44.084;2.962;2024-02-28T15:43:31;98009.38;;;16.65;38.24
50518;BME280;37075;44.084;2.962;2024-02-28T15:46:19;98012.22;;;16.69;37.93
50518;BME280;37075;44.084;2.962;2024-02-28T15:49:05;98011.53;;;16.56;37.36
50518;BME280;37075;44.084;2.962;2024-02-28T15:51:53;98008.34;;;16.54;37.72
50518;BME280;37075;44.084;2.962;2024-02-28T15:54:40;98011.41;;;16.49;38.02
50518;BME280;37075;44.084;2.962;2024-02-28T15:57:26;98014.09;;;16.46;38.29
50518;BME280;37075;44.084;2.962;2024-02-28T16:00:15;98027.50;;;16.47;38.45
50518;BME280;37075;44.084;2.962;2024-02-28T16:03:02;98016.19;;;16.52;38.64
50518;BME280;37075;44.084;2.962;2024-02-28T16:05:49;98023.91;;;16.43;38.73
50518;BME280;37075;44.084;2.962;2024-02-28T16:08:39;98019.25;;;16.28;38.55
50518;BME280;37075;44.084;2.962;2024-02-28T16:11:26;98021.22;;;16.08;38.72
50518;BME280;37075;44.084;2.962;2024-02-28T16:14:11;98008.84;;;15.98;39.13
50518;BME280;37075;44.084;2.962;2024-02-28T16:16:59;98011.44;;;15.72;39.26
50518;BME280;37075;44.084;2.962;2024-02-28T16:19:45;98000.69;;;15.32;39.79
50518;BME280;37075;44.084;2.962;2024-02-28T16:22:32;98009.03;;;15.04;40.35
50518;BME280;37075;44.084;2.962;2024-02-28T16:25:18;98011.78;;;14.72;41.18
50518;BME280;37075;44.084;2.962;2024-02-28T16:28:06;98011.94;;;14.48;41.93
50518;BME280;37075;44.084;2.962;2024-02-28T16:30:52;98013.59;;;14.37;42.34
50518;BME280;37075;44.084;2.962;2024-02-28T16:33:40;98013.88;;;14.19;42.66
50518;BME280;37075;44.084;2.962;2024-02-28T16:36:26;98012.69;;;14.05;42.92
50518;BME280;37075;44.084;2.962;2024-02-28T16:39:13;98016.97;;;13.90;43.22
50518;BME280;37075;44.084;2.962;2024-02-28T16:41:59;98017.50;;;13.68;43.52
50518;BME280;37075;44.084;2.962;2024-02-28T16:44:47;98002.69;;;13.56;44.03
50518;BME280;37075;44.084;2.962;2024-02-28T16:47:33;98018.69;;;13.42;44.50
50518;BME280;37075;44.084;2.962;2024-02-28T16:50:20;98016.03;;;13.46;44.51
50518;BME280;37075;44.084;2.962;2024-02-28T16:53:06;98017.63;;;13.59;44.39
50518;BME280;37075;44.084;2.962;2024-02-28T16:55:52;98026.88;;;13.67;44.24
50518;BME280;37075;44.084;2.962;2024-02-28T16:58:37;98022.63;;;13.69;44.21
50518;BME280;37075;44.084;2.962;2024-02-28T17:01:24;98025.47;;;13.73;43.92
50518;BME280;37075;44.084;2.962;2024-02-28T17:04:10;98015.25;;;13.57;44.38
50518;BME280;37075;44.084;2.962;2024-02-28T17:06:59;98018.47;;;13.35;44.92
50518;BME280;37075;44.084;2.962;2024-02-28T17:09:46;98022.56;;;13.17;45.13
50518;BME280;37075;44.084;2.962;2024-02-28T17:12:32;98010.69;;;13.13;44.95
50518;BME280;37075;44.084;2.962;2024-02-28T17:15:18;98012.06;;;13.07;45.05
50518;BME280;37075;44.084;2.962;2024-02-28T17:18:04;98015.72;;;13.11;44.81
50518;BME280;37075;44.084;2.962;2024-02-28T17:20:51;98017.78;;;13.02;44.96
50518;BME280;37075;44.084;2.962;2024-02-28T17:23:38;98028.34;;;12.91;44.95
50518;BME280;37075;44.084;2.962;2024-02-28T17:26:24;98028.03;;;12.92;44.71
50518;BME280;37075;44.084;2.962;2024-02-28T17:29:12;98040.91;;;12.92;44.57
50518;BME280;37075;44.084;2.962;2024-02-28T17:31:58;98037.59;;;12.86;44.68
50518;BME280;37075;44.084;2.962;2024-02-28T17:34:44;98046.38;;;12.80;44.67
50518;BME280;37075;44.084;2.962;2024-02-28T17:37:35;98056.28;;;12.72;44.65
50518;BME280;37075;44.084;2.962;2024-02-28T17:40:23;98067.66;;;12.62;44.49
50518;BME280;37075;44.084;2.962;2024-02-28T17:43:09;98070.38;;;12.50;44.62
50518;BME280;37075;44.084;2.962;2024-02-28T17:45:55;98077.00;;;12.28;44.92
50518;BME280;37075;44.084;2.962;2024-02-28T17:48:45;98076.81;;;12.12;44.88
50518;BME280;37075;44.084;2.962;2024-02-28T17:51:31;98092.38;;;11.99;45.13
50518;BME280;37075;44.084;2.962;2024-02-28T17:54:20;98094.94;;;11.75;45.81
50518;BME280;37075;44.084;2.962;2024-02-28T17:57:07;98098.31;;;11.72;45.68
50518;BME280;37075;44.084;2.962;2024-02-28T17:59:53;98107.03;;;11.65;45.53
50518;BME280;37075;44.084;2.962;2024-02-28T18:02:40;98106.94;;;11.53;45.45
50518;BME280;37075;44.084;2.962;2024-02-28T18:05:26;98099.78;;;11.40;45.70
50518;BME280;37075;44.084;2.962;2024-02-28T18:08:12;98106.09;;;11.32;45.59
50518;BME280;37075;44.084;2.962;2024-02-28T18:10:59;98110.66;;;11.19;45.56
50518;BME280;37075;44.084;2.962;2024-02-28T18:13:46;98100.09;;;11.09;45.84
50518;BME280;37075;44.084;2.962;2024-02-28T18:16:32;98105.59;;;11.00;45.93
50518;BME280;37075;44.084;2.962;2024-02-28T18:19:18;98105.44;;;10.88;46.22
50518;BME280;37075;44.084;2.962;2024-02-28T18:22:06;98110.31;;;10.74;46.46
50518;BME280;37075;44.084;2.962;2024-02-28T18:24:53;98105.84;;;10.61;46.76
50518;BME280;37075;44.084;2.962;2024-02-28T18:27:42;98110.69;;;10.46;47.15
50518;BME280;37075;44.084;2.962;2024-02-28T18:30:31;98110.06;;;10.32;46.89
50518;BME280;37075;44.084;2.962;2024-02-28T18:33:18;98115.34;;;10.20;47.29
50518;BME280;37075;44.084;2.962;2024-02-28T18:36:04;98120.59;;;10.08;47.61
50518;BME280;37075;44.084;2.962;2024-02-28T18:38:51;98112.13;;;9.92;47.86
50518;BME280;37075;44.084;2.962;2024-02-28T18:41:37;98109.19;;;9.80;48.01
50518;BME280;37075;44.084;2.962;2024-02-28T18:44:24;98115.13;;;9.65;48.45
50518;BME280;37075;44.084;2.962;2024-02-28T18:47:11;98115.88;;;9.56;48.72
50518;BME280;37075;44.084;2.962;2024-02-28T18:49:58;98121.63;;;9.46;48.96
50518;BME280;37075;44.084;2.962;2024-02-28T18:52:44;98120.31;;;9.35;49.21
50518;BME280;37075;44.084;2.962;2024-02-28T18:55:30;98123.63;;;9.23;49.63
50518;BME280;37075;44.084;2.962;2024-02-28T18:58:16;98118.16;;;9.15;49.52
50518;BME280;37075;44.084;2.962;2024-02-28T19:01:02;98121.16;;;9.05;49.66
50518;BME280;37075;44.084;2.962;2024-02-28T19:03:49;98118.41;;;8.96;49.66
50518;BME280;37075;44.084;2.962;2024-02-28T19:06:37;98121.91;;;8.88;49.72
50518;BME280;37075;44.084;2.962;2024-02-28T19:09:24;98129.31;;;8.74;50.71
50518;BME280;37075;44.084;2.962;2024-02-28T19:12:10;98116.78;;;8.64;50.80
50518;BME280;37075;44.084;2.962;2024-02-28T19:14:55;98124.88;;;8.55;50.72
50518;BME280;37075;44.084;2.962;2024-02-28T19:17:41;98129.28;;;8.43;51.08
50518;BME280;37075;44.084;2.962;2024-02-28T19:20:29;98122.16;;;8.33;51.07
50518;BME280;37075;44.084;2.962;2024-02-28T19:23:17;98125.41;;;8.21;52.16
50518;BME280;37075;44.084;2.962;2024-02-28T19:26:04;98119.75;;;8.09;52.50
50518;BME280;37075;44.084;2.962;2024-02-28T19:28:51;98125.56;;;8.02;52.60
50518;BME280;37075;44.084;2.962;2024-02-28T19:31:37;98126.69;;;8.01;52.67
50518;BME280;37075;44.084;2.962;2024-02-28T19:34:23;98114.94;;;7.92;52.57
50518;BME280;37075;44.084;2.962;2024-02-28T19:37:11;98116.00;;;7.83;52.88
50518;BME280;37075;44.084;2.962;2024-02-28T19:39:58;98123.47;;;7.63;54.00
50518;BME280;37075;44.084;2.962;2024-02-28T19:42:52;98119.66;;;7.64;53.49
50518;BME280;37075;44.084;2.962;2024-02-28T19:45:38;98122.47;;;7.59;53.66
50518;BME280;37075;44.084;2.962;2024-02-28T19:48:25;98131.31;;;7.51;53.99
50518;BME280;37075;44.084;2.962;2024-02-28T19:51:11;98134.94;;;7.47;53.97
50518;BME280;37075;44.084;2.962;2024-02-28T19:54:02;98136.16;;;7.40;53.95
50518;BME280;37075;44.084;2.962;2024-02-28T19:56:48;98138.47;;;7.33;53.91
50518;BME280;37075;44.084;2.962;2024-02-28T19:59:36;98142.69;;;7.26;54.29
50518;BME280;37075;44.084;2.962;2024-02-28T20:02:23;98142.28;;;7.19;54.05
50518;BME280;37075;44.084;2.962;2024-02-28T20:05:11;98140.78;;;7.13;54.19
50518;BME280;37075;44.084;2.962;2024-02-28T20:07:57;98141.47;;;7.04;54.21
50518;BME280;37075;44.084;2.962;2024-02-28T20:10:47;98138.84;;;6.99;54.47
50518;BME280;37075;44.084;2.962;2024-02-28T20:13:33;98143.88;;;6.92;54.38
50518;BME280;37075;44.084;2.962;2024-02-28T20:16:20;98145.97;;;6.82;54.50
50518;BME280;37075;44.084;2.962;2024-02-28T20:19:06;98141.72;;;6.75;54.55
50518;BME280;37075;44.084;2.962;2024-02-28T20:21:52;98145.13;;;6.67;54.92
50518;BME280;37075;44.084;2.962;2024-02-28T20:24:38;98147.91;;;6.62;54.62
50518;BME280;37075;44.084;2.962;2024-02-28T20:27:28;98145.31;;;6.57;54.81
50518;BME280;37075;44.084;2.962;2024-02-28T20:30:15;98160.56;;;6.53;54.76
50518;BME280;37075;44.084;2.962;2024-02-28T20:33:03;98155.69;;;6.50;54.90
50518;BME280;37075;44.084;2.962;2024-02-28T20:35:49;98149.84;;;6.43;55.10
50518;BME280;37075;44.084;2.962;2024-02-28T20:38:35;98140.72;;;6.39;55.03
50518;BME280;37075;44.084;2.962;2024-02-28T20:41:21;98139.69;;;6.35;55.42
50518;BME280;37075;44.084;2.962;2024-02-28T20:44:08;98143.31;;;6.30;55.44
50518;BME280;37075;44.084;2.962;2024-02-28T20:46:55;98147.69;;;6.26;55.31
50518;BME280;37075;44.084;2.962;2024-02-28T20:49:41;98146.66;;;6.22;55.51
50518;BME280;37075;44.084;2.962;2024-02-28T20:52:28;98145.44;;;6.14;55.88
50518;BME280;37075;44.084;2.962;2024-02-28T20:55:15;98145.09;;;6.02;56.61
50518;BME280;37075;44.084;2.962;2024-02-28T20:58:02;98136.16;;;6.02;56.25
50518;BME280;37075;44.084;2.962;2024-02-28T21:00:51;98137.56;;;5.99;56.28
50518;BME280;37075;44.084;2.962;2024-02-28T21:03:39;98140.31;;;5.94;56.22
50518;BME280;37075;44.084;2.962;2024-02-28T21:06:25;98144.69;;;5.90;56.29
50518;BME280;37075;44.084;2.962;2024-02-28T21:09:13;98151.56;;;5.82;56.60
50518;BME280;37075;44.084;2.962;2024-02-28T21:12:04;98143.50;;;5.77;56.63
50518;BME280;37075;44.084;2.962;2024-02-28T21:14:50;98149.50;;;5.74;56.52
50518;BME280;37075;44.084;2.962;2024-02-28T21:17:38;98141.13;;;5.71;56.56
50518;BME280;37075;44.084;2.962;2024-02-28T21:20:24;98151.75;;;5.67;56.59
50518;BME280;37075;44.084;2.962;2024-02-28T21:23:10;98156.44;;;5.62;56.76
50518;BME280;37075;44.084;2.962;2024-02-28T21:25:57;98148.09;;;5.58;56.77
50518;BME280;37075;44.084;2.962;2024-02-28T21:28:43;98163.28;;;5.54;56.82
50518;BME280;37075;44.084;2.962;2024-02-28T21:31:29;98155.75;;;5.51;57.06
50518;BME280;37075;44.084;2.962;2024-02-28T21:34:16;98157.44;;;5.47;56.97
50518;BME280;37075;44.084;2.962;2024-02-28T21:37:04;98147.97;;;5.44;56.93
